Indian Springs, Indiana
Current Conditions -  °F | °C
As of 12:15 PM on Thursday 27 Nov 2014 (Local Time) from KDCY Reporting Station
Overcast Overcast  
Wind Chill: -8°   Ceiling: 1700
Heat Index: -2°   Visibility: 7mi
Dew Point: -4°   Wind: 13mph
Humidity: 84%   Direction: 300°WNW
Pressure: 30.41"   Gusts: NA
Location:  38.6262°N, 86.7615°W
Report Text: KDCY 271815Z AUTO 30011KT 7SM OVC017 M02/M04 A3041 RMK AO2 T10191042
Loading
Personal Weather Stations






























Interactive Weather Map New forecast layout! Learn more

10-Day Weather Forecast

Advertisements
Track Severe Weather on mobile